Time;durP1;ratioP1;P1;durP2;ratioP2;P2;SDS_P1;SDS_P2;PMS_P1;PMS_P2;Temp;Humidity;BMP_temperature;BMP_pressure;BME280_temperature;BME280_humidity;BME280_pressure;Samples;Min_cycle;Max_cycle;Signal;HPM_P1;HPM_P2
2024/02/20 00:00:33;;;;;;;68.05;19.52;;;;;;;9.12;100.00;98686.91;5023854;28;20489;-61
2024/02/20 00:02:58;;;;;;;53.15;18.88;;;;;;;9.12;100.00;98684.28;5027591;28;20029;-58
2024/02/20 00:05:24;;;;;;;82.40;20.45;;;;;;;9.16;100.00;98686.09;5023059;28;20399;-60
2024/02/20 00:07:49;;;;;;;64.97;19.85;;;;;;;9.08;100.00;98692.88;5027698;28;20080;-61
2024/02/20 00:10:14;;;;;;;82.57;20.45;;;;;;;9.19;100.00;98685.25;5022778;28;20167;-61
2024/02/20 00:12:42;;;;;;;62.58;19.48;;;;;;;9.13;100.00;98686.03;5026469;28;20036;-59
2024/02/20 00:15:08;;;;;;;76.10;20.27;;;;;;;8.97;100.00;98684.94;5024721;28;20476;-59
2024/02/20 00:17:37;;;;;;;50.83;15.82;;;;;;;8.76;100.00;98688.13;5028320;28;20468;-60
2024/02/20 00:20:05;;;;;;;70.60;18.05;;;;;;;8.87;100.00;98689.13;5025044;28;20032;-59
2024/02/20 00:22:31;;;;;;;50.58;15.73;;;;;;;8.98;100.00;98692.75;5024765;28;20086;-59
2024/02/20 00:24:56;;;;;;;56.67;19.70;;;;;;;9.19;100.00;98687.84;5025705;28;20018;-60
2024/02/20 00:27:22;;;;;;;91.28;21.98;;;;;;;9.14;100.00;98689.50;5024825;28;20063;-59
2024/02/20 00:29:49;;;;;;;53.75;17.73;;;;;;;9.21;100.00;98679.22;5026934;28;20029;-61
2024/02/20 00:32:16;;;;;;;67.35;19.65;;;;;;;9.28;100.00;98684.50;5024460;28;20086;-60
2024/02/20 00:34:42;;;;;;;74.00;16.90;;;;;;;9.31;100.00;98694.94;5024528;28;20036;-59
2024/02/20 00:37:08;;;;;;;54.60;29.20;;;;;;;9.33;100.00;98698.41;5024797;28;20037;-58
2024/02/20 00:39:34;;;;;;;71.45;16.73;;;;;;;9.33;100.00;98698.41;5024832;28;20039;-60
2024/02/20 00:42:01;;;;;;;68.18;17.77;;;;;;;9.26;100.00;98700.06;5025349;28;20064;-58
2024/02/20 00:44:27;;;;;;;79.88;18.30;;;;;;;9.33;100.00;98701.00;5024745;28;20124;-61
2024/02/20 00:46:52;;;;;;;49.33;17.00;;;;;;;9.31;100.00;98706.19;5023548;28;20130;-59
2024/02/20 00:49:18;;;;;;;68.32;18.52;;;;;;;9.35;100.00;98697.59;5025982;28;20047;-61
2024/02/20 00:51:44;;;;;;;59.08;30.05;;;;;;;9.68;100.00;98699.72;5024932;28;20531;-58
2024/02/20 00:54:10;;;;;;;102.50;92.28;;;;;;;10.06;100.00;98701.00;5023052;28;20527;-60
2024/02/20 00:56:36;;;;;;;79.15;49.65;;;;;;;10.33;100.00;98704.72;5024266;28;20552;-61
2024/02/20 00:59:02;;;;;;;72.82;59.45;;;;;;;10.12;100.00;98699.31;5025206;28;20021;-59
2024/02/20 01:01:28;;;;;;;80.13;20.15;;;;;;;10.63;100.00;98696.34;5024111;28;20124;-60
2024/02/20 01:03:53;;;;;;;57.83;17.15;;;;;;;10.37;100.00;98702.16;5023560;28;20074;-60
2024/02/20 01:06:19;;;;;;;77.60;18.23;;;;;;;10.09;100.00;98701.03;5021315;28;20093;-59
2024/02/20 01:08:44;;;;;;;66.15;17.08;;;;;;;9.58;100.00;98693.53;5019857;28;20401;-58
2024/02/20 01:11:10;;;;;;;57.72;18.13;;;;;;;9.86;100.00;98692.13;5019407;28;20041;-60
2024/02/20 01:13:35;;;;;;;60.45;16.35;;;;;;;9.74;100.00;98692.00;5019897;28;20044;-61
2024/02/20 01:16:01;;;;;;;79.47;17.25;;;;;;;9.85;100.00;98702.50;5018009;28;20440;-58
2024/02/20 01:18:26;;;;;;;78.97;17.33;;;;;;;9.97;100.00;98689.66;5026731;28;20025;-61
2024/02/20 01:20:52;;;;;;;52.22;14.57;;;;;;;9.60;100.00;98697.00;5020198;28;20136;-59
2024/02/20 01:23:18;;;;;;;81.35;17.85;;;;;;;9.43;100.00;98689.88;5022507;28;20393;-61
2024/02/20 01:25:43;;;;;;;65.57;16.08;;;;;;;9.79;100.00;98685.13;5019600;28;20044;-61
2024/02/20 01:28:10;;;;;;;58.47;16.17;;;;;;;9.72;100.00;98681.56;5021779;28;20036;-58
2024/02/20 01:30:35;;;;;;;60.92;14.13;;;;;;;9.71;100.00;98687.63;5017445;28;20048;-60
2024/02/20 01:33:00;;;;;;;62.60;20.67;;;;;;;9.74;100.00;98684.19;5021917;28;20056;-59
2024/02/20 01:35:26;;;;;;;84.03;18.52;;;;;;;9.62;100.00;98683.19;5019583;28;20041;-59
2024/02/20 01:37:52;;;;;;;70.50;16.77;;;;;;;9.51;100.00;98677.03;5021121;28;20043;-58
2024/02/20 01:40:18;;;;;;;57.00;16.55;;;;;;;9.79;100.00;98676.47;5018187;28;20787;-60
2024/02/20 01:43:00;;;;;;;51.85;15.65;;;;;;;9.45;100.00;98684.72;5023036;28;20507;-59
2024/02/20 01:45:27;;;;;;;76.65;17.48;;;;;;;9.51;100.00;98674.41;5024247;28;20102;-59
2024/02/20 01:47:54;;;;;;;56.40;15.23;;;;;;;9.68;100.00;98674.59;5025389;28;20511;-59
2024/02/20 01:50:20;;;;;;;84.22;17.25;;;;;;;9.55;100.00;98675.31;5023122;28;20047;-61
2024/02/20 01:52:46;;;;;;;46.40;18.27;;;;;;;9.69;100.00;98668.53;5025444;28;20417;-59
2024/02/20 01:55:12;;;;;;;51.70;15.10;;;;;;;9.62;100.00;98669.34;5024449;28;20032;-61
2024/02/20 01:57:41;;;;;;;59.90;15.20;;;;;;;9.70;100.00;98670.31;5022913;28;20038;-59
2024/02/20 02:00:07;;;;;;;61.10;14.27;;;;;;;9.58;100.00;98675.38;5025899;28;20033;-59
2024/02/20 02:02:33;;;;;;;67.40;16.38;;;;;;;9.49;100.00;98674.41;5023631;28;20185;-62
2024/02/20 02:04:59;;;;;;;59.92;14.18;;;;;;;9.37;100.00;98672.53;5023434;28;20690;-59
2024/02/20 02:07:24;;;;;;;61.50;14.85;;;;;;;9.09;100.00;98668.69;5022779;28;20045;-59
2024/02/20 02:09:50;;;;;;;54.22;14.13;;;;;;;9.13;100.00;98670.47;5024934;28;20116;-60
2024/02/20 02:12:15;;;;;;;48.63;19.33;;;;;;;9.16;100.00;98673.09;5022816;28;20037;-59
2024/02/20 02:14:47;;;;;;;53.90;18.63;;;;;;;9.08;100.00;98672.13;5024071;28;20020;-60
2024/02/20 02:17:13;;;;;;;66.50;17.15;;;;;;;9.21;100.00;98680.97;5025038;28;20433;-61
2024/02/20 02:19:39;;;;;;;76.93;17.95;;;;;;;9.31;100.00;98674.19;5023323;28;20611;-60
2024/02/20 02:22:06;;;;;;;66.20;18.02;;;;;;;9.19;100.00;98674.88;5024114;28;20051;-58
2024/02/20 02:24:35;;;;;;;109.47;20.08;;;;;;;9.21;100.00;98676.63;5024320;28;20021;-59
2024/02/20 02:27:04;;;;;;;61.28;14.93;;;;;;;9.16;100.00;98675.69;5024777;28;20436;-60
2024/02/20 02:29:31;;;;;;;92.88;18.35;;;;;;;8.92;100.00;98673.66;5025431;28;20026;-58
2024/02/20 02:31:57;;;;;;;57.72;17.42;;;;;;;8.98;100.00;98679.78;5022810;28;20067;-61
2024/02/20 02:34:22;;;;;;;56.50;18.15;;;;;;;9.17;100.00;98677.44;5024194;28;20017;-61
2024/02/20 02:36:48;;;;;;;71.05;16.38;;;;;;;9.07;100.00;98670.38;5022638;28;20033;-60
2024/02/20 02:39:16;;;;;;;70.22;18.10;;;;;;;8.93;100.00;98684.03;5025768;28;20514;-59
2024/02/20 02:41:42;;;;;;;61.38;16.38;;;;;;;8.88;100.00;98679.63;5024419;28;20044;-61
2024/02/20 02:44:07;;;;;;;70.13;20.95;;;;;;;8.95;100.00;98682.34;5024073;28;20017;-61
2024/02/20 02:46:32;;;;;;;84.15;17.45;;;;;;;8.84;100.00;98694.28;5022267;28;20049;-60
2024/02/20 02:48:58;;;;;;;48.95;14.73;;;;;;;9.24;100.00;98689.66;5025843;28;20241;-60
2024/02/20 02:51:24;;;;;;;76.95;17.35;;;;;;;9.40;100.00;98684.69;5021017;28;20128;-62
2024/02/20 02:53:49;;;;;;;52.45;14.43;;;;;;;9.15;100.00;98692.13;5023648;28;20043;-59
2024/02/20 02:56:15;;;;;;;59.95;18.30;;;;;;;9.11;100.00;98688.63;5026444;28;20106;-61
2024/02/20 02:58:40;;;;;;;69.60;15.27;;;;;;;9.33;100.00;98690.63;5023814;28;20021;-59
2024/02/20 03:01:07;;;;;;;55.28;13.48;;;;;;;9.45;100.00;98690.78;5020964;28;20148;-59
2024/02/20 03:03:33;;;;;;;78.22;15.65;;;;;;;9.29;100.00;98692.31;5023113;28;20518;-59
2024/02/20 03:06:05;;;;;;;60.58;16.35;;;;;;;9.36;100.00;98693.28;5021877;28;20493;-60
2024/02/20 03:08:31;;;;;;;87.00;16.35;;;;;;;9.11;100.00;98701.63;5024304;28;20546;-61
2024/02/20 03:10:56;;;;;;;55.97;15.93;;;;;;;9.23;100.00;98700.00;5023218;28;20029;-62
2024/02/20 03:13:22;;;;;;;60.00;15.60;;;;;;;9.07;100.00;98707.59;5022023;28;20029;-61
2024/02/20 03:15:47;;;;;;;53.17;21.38;;;;;;;9.13;100.00;98708.53;5020559;28;20520;-60
2024/02/20 03:18:13;;;;;;;60.03;17.02;;;;;;;9.20;100.00;98706.03;5022454;28;20086;-58
2024/02/20 03:20:38;;;;;;;90.63;21.70;;;;;;;8.97;100.00;98711.78;5022875;28;20631;-59
2024/02/20 03:23:03;;;;;;;71.07;23.13;;;;;;;9.16;100.00;98718.97;5021830;28;20029;-63
2024/02/20 03:25:29;;;;;;;91.75;27.27;;;;;;;9.12;100.00;98715.44;5019295;28;20256;-60
2024/02/20 03:27:55;;;;;;;63.10;31.70;;;;;;;9.07;100.00;98711.91;5024333;28;20082;-58
2024/02/20 03:30:20;;;;;;;57.25;19.83;;;;;;;8.94;100.00;98713.44;5021945;28;20608;-59
2024/02/20 03:32:46;;;;;;;61.22;16.15;;;;;;;8.92;100.00;98722.94;5021407;28;20140;-61
2024/02/20 03:35:20;;;;;;;55.33;16.98;;;;;;;9.11;100.00;98727.56;5024304;28;20201;-59
2024/02/20 03:37:47;;;;;;;53.13;15.40;;;;;;;9.15;100.00;98727.59;5022708;28;20083;-60
2024/02/20 03:40:13;;;;;;;67.10;14.85;;;;;;;9.33;100.00;98734.75;5021891;28;20544;-63
2024/02/20 03:42:39;;;;;;;85.00;16.25;;;;;;;9.02;100.00;98734.34;5022557;28;20083;-60
2024/02/20 03:45:05;;;;;;;55.05;18.23;;;;;;;8.73;100.00;98741.66;5023240;28;20395;-58
2024/02/20 03:47:31;;;;;;;84.05;18.13;;;;;;;8.73;100.00;98733.88;5020831;28;20095;-62
2024/02/20 03:49:57;;;;;;;56.55;13.32;;;;;;;8.57;100.00;98737.06;5023048;28;20083;-60
2024/02/20 03:52:22;;;;;;;50.88;15.38;;;;;;;8.81;100.00;98743.53;5020777;28;20033;-60
2024/02/20 03:54:48;;;;;;;70.30;17.08;;;;;;;8.84;100.00;98746.19;5020672;28;20072;-61
2024/02/20 03:57:14;;;;;;;59.90;20.08;;;;;;;8.72;100.00;98744.25;5020468;28;20413;-60
2024/02/20 03:59:39;;;;;;;118.57;19.85;;;;;;;8.73;100.00;98749.44;5021314;28;20405;-60
2024/02/20 04:02:05;;;;;;;46.65;15.57;;;;;;;8.94;100.00;98739.38;5022399;28;20044;-60
2024/02/20 04:04:30;;;;;;;83.65;19.40;;;;;;;9.13;100.00;98745.72;5021600;28;20424;-59
2024/02/20 04:06:55;;;;;;;63.00;19.15;;;;;;;8.89;100.00;98743.63;5021289;28;20485;-62
2024/02/20 04:09:21;;;;;;;53.65;19.42;;;;;;;9.20;100.00;98750.16;5023480;28;20021;-61
2024/02/20 04:11:46;;;;;;;53.95;15.80;;;;;;;8.96;100.00;98751.56;5022074;28;20814;-59
2024/02/20 04:14:11;;;;;;;62.67;17.58;;;;;;;9.07;100.00;98759.50;5022245;28;20025;-59
2024/02/20 04:16:37;;;;;;;88.38;18.70;;;;;;;9.34;100.00;98757.28;5020419;28;20048;-61
2024/02/20 04:19:02;;;;;;;62.13;17.52;;;;;;;9.74;100.00;98754.34;5024340;28;20086;-61
2024/02/20 04:21:27;;;;;;;68.43;15.70;;;;;;;9.55;100.00;98755.81;5023222;28;20049;-60
2024/02/20 04:23:53;;;;;;;53.67;26.15;;;;;;;9.13;100.00;98765.63;5025407;28;20280;-59
2024/02/20 04:26:18;;;;;;;54.50;17.00;;;;;;;9.37;100.00;98766.00;5023085;28;20040;-61
2024/02/20 04:28:43;;;;;;;71.22;17.17;;;;;;;8.95;100.00;98775.75;5023581;28;20037;-59
2024/02/20 04:31:08;;;;;;;53.55;16.23;;;;;;;8.88;100.00;98778.22;5023647;28;20493;-61
2024/02/20 04:33:34;;;;;;;68.85;37.45;;;;;;;9.01;100.00;98780.16;5022457;28;20037;-59
2024/02/20 04:35:59;;;;;;;85.82;27.40;;;;;;;9.28;100.00;98781.41;5023475;28;20056;-60
2024/02/20 04:38:24;;;;;;;59.85;17.08;;;;;;;8.93;100.00;98790.41;5025810;28;20032;-59
2024/02/20 04:40:50;;;;;;;63.38;23.92;;;;;;;9.23;100.00;98783.97;5022073;28;20033;-59
2024/02/20 04:43:15;;;;;;;68.25;23.83;;;;;;;9.54;100.00;98790.44;5023074;28;20037;-60
2024/02/20 04:45:40;;;;;;;71.88;28.60;;;;;;;9.37;100.00;98789.38;5021252;28;20029;-60
2024/02/20 04:48:07;;;;;;;71.60;32.60;;;;;;;8.89;100.00;98796.41;5025348;28;20028;-61
2024/02/20 04:50:33;;;;;;;80.80;22.20;;;;;;;8.84;100.00;98801.50;5019739;28;20057;-60
2024/02/20 04:52:58;;;;;;;67.88;21.15;;;;;;;9.26;100.00;98796.13;5022528;28;20029;-59
2024/02/20 04:55:26;;;;;;;52.70;19.10;;;;;;;9.44;100.00;98798.13;5023408;28;20048;-59
2024/02/20 04:57:52;;;;;;;75.13;19.65;;;;;;;9.28;100.00;98814.31;5024249;28;20112;-61
2024/02/20 05:00:18;;;;;;;59.67;26.92;;;;;;;9.56;100.00;98809.50;5030523;28;20112;-60
2024/02/20 05:02:44;;;;;;;67.63;22.52;;;;;;;9.69;100.00;98810.56;5022606;28;20021;-60
2024/02/20 05:05:09;;;;;;;75.78;23.90;;;;;;;8.92;100.00;98817.22;5021954;28;20562;-60
2024/02/20 05:07:35;;;;;;;66.88;21.33;;;;;;;8.83;100.00;98812.75;5024149;28;20032;-62
2024/02/20 05:10:00;;;;;;;68.95;22.40;;;;;;;9.37;100.00;98810.13;5021774;28;20041;-60
2024/02/20 05:12:25;;;;;;;119.32;86.70;;;;;;;9.65;100.00;98807.03;5023031;28;20041;-61
2024/02/20 05:14:51;;;;;;;75.40;20.20;;;;;;;9.43;100.00;98814.53;5023891;28;20049;-58
2024/02/20 05:17:16;;;;;;;63.30;22.90;;;;;;;9.24;100.00;98816.84;5022823;28;20072;-58
2024/02/20 05:19:41;;;;;;;105.45;22.30;;;;;;;8.64;100.00;98815.88;5023217;28;20243;-60
2024/02/20 05:22:07;;;;;;;66.88;18.73;;;;;;;9.54;100.00;98819.00;5024283;28;20042;-59
2024/02/20 05:24:36;;;;;;;72.97;19.30;;;;;;;9.15;100.00;98827.09;5023666;28;20032;-62
2024/02/20 05:27:04;;;;;;;73.05;22.17;;;;;;;9.01;100.00;98826.00;5022202;28;20038;-59
2024/02/20 05:29:30;;;;;;;85.43;20.23;;;;;;;9.35;100.00;98823.91;5023862;28;20029;-61
2024/02/20 05:31:58;;;;;;;81.88;22.92;;;;;;;9.02;100.00;98828.59;5023465;28;20041;-62
2024/02/20 05:34:24;;;;;;;59.58;23.67;;;;;;;8.93;100.00;98839.72;5023115;28;20033;-60
2024/02/20 05:36:49;;;;;;;69.32;18.00;;;;;;;8.89;100.00;98831.84;5022565;28;20068;-61
2024/02/20 05:39:14;;;;;;;96.68;17.98;;;;;;;8.63;100.00;98834.84;5023629;28;20179;-62
2024/02/20 05:41:40;;;;;;;58.63;18.48;;;;;;;8.57;100.00;98836.50;5022317;28;20508;-59
2024/02/20 05:44:05;;;;;;;61.70;26.42;;;;;;;8.38;100.00;98845.63;5022451;28;20595;-62
2024/02/20 05:46:32;;;;;;;80.03;23.77;;;;;;;8.49;100.00;98838.03;5020581;28;20382;-60
2024/02/20 05:48:58;;;;;;;71.50;25.10;;;;;;;8.75;100.00;98842.00;5023689;28;20082;-62
2024/02/20 05:51:24;;;;;;;59.30;27.83;;;;;;;8.93;100.00;98846.63;5023084;28;20041;-61
2024/02/20 05:53:50;;;;;;;78.97;18.88;;;;;;;8.77;100.00;98845.47;5022321;28;20025;-60
2024/02/20 05:56:16;;;;;;;63.60;20.15;;;;;;;9.81;100.00;98846.22;5023237;28;20048;-59
2024/02/20 05:58:41;;;;;;;97.88;21.80;;;;;;;9.53;100.00;98851.03;5023194;28;20025;-58
2024/02/20 06:01:08;;;;;;;65.72;17.13;;;;;;;9.25;100.00;98857.53;5022165;28;20529;-60
2024/02/20 06:03:37;;;;;;;82.13;22.25;;;;;;;8.94;100.00;98859.63;5022778;28;20033;-60
2024/02/20 06:06:07;;;;;;;80.80;19.27;;;;;;;9.70;100.00;98859.94;5020221;28;20539;-61
2024/02/20 06:08:34;;;;;;;73.45;34.00;;;;;;;9.57;100.00;98864.06;5021266;28;20022;-62
2024/02/20 06:10:59;;;;;;;67.20;17.30;;;;;;;9.30;100.00;98872.31;5022240;28;20504;-58
2024/02/20 06:13:25;;;;;;;69.03;18.65;;;;;;;9.93;100.00;98863.69;5022178;28;20033;-58
2024/02/20 06:15:50;;;;;;;66.45;19.17;;;;;;;9.20;100.00;98879.94;5022372;28;20041;-58
2024/02/20 06:18:16;;;;;;;59.13;17.73;;;;;;;9.29;100.00;98873.16;5021966;28;20120;-59
2024/02/20 06:20:45;;;;;;;118.78;50.95;;;;;;;9.46;100.00;98879.50;5021576;28;20049;-59
2024/02/20 06:23:10;;;;;;;64.18;21.42;;;;;;;8.94;100.00;98882.09;5023570;28;20120;-57
2024/02/20 06:25:36;;;;;;;79.82;19.50;;;;;;;9.02;100.00;98887.44;5022204;28;20519;-58
2024/02/20 06:28:02;;;;;;;71.18;16.73;;;;;;;9.01;100.00;98883.09;5023670;28;20038;-61
2024/02/20 06:30:27;;;;;;;54.35;15.60;;;;;;;8.76;100.00;98886.09;5026005;28;20049;-57
2024/02/20 06:32:53;;;;;;;80.10;35.38;;;;;;;8.84;100.00;98894.91;5026583;28;20032;-58
2024/02/20 06:35:18;;;;;;;54.58;15.07;;;;;;;8.72;100.00;98898.16;5025614;28;20378;-58
2024/02/20 06:37:43;;;;;;;90.85;20.02;;;;;;;8.63;100.00;98897.09;5024144;28;20037;-57
2024/02/20 06:40:09;;;;;;;76.53;19.00;;;;;;;8.85;100.00;98894.06;5022793;28;20032;-59
2024/02/20 06:42:34;;;;;;;75.10;16.88;;;;;;;8.69;100.00;98899.81;5024930;28;20029;-60
2024/02/20 06:45:00;;;;;;;76.95;21.90;;;;;;;8.91;100.00;98908.00;5025584;28;20029;-59
2024/02/20 06:47:25;;;;;;;68.28;18.52;;;;;;;9.45;100.00;98905.44;5025495;28;20118;-57
2024/02/20 06:49:50;;;;;;;71.57;20.88;;;;;;;9.54;100.00;98909.91;5024347;28;20321;-57
2024/02/20 06:52:16;;;;;;;75.15;21.92;;;;;;;9.71;100.00;98907.56;5026109;28;20436;-59
2024/02/20 06:54:41;;;;;;;98.50;22.60;;;;;;;8.95;100.00;98915.84;5026043;28;20068;-58
2024/02/20 06:57:07;;;;;;;59.78;15.60;;;;;;;8.75;100.00;98917.22;5025275;28;20036;-59
2024/02/20 06:59:32;;;;;;;92.78;22.92;;;;;;;8.64;100.00;98924.81;5023569;28;20040;-59
2024/02/20 07:01:58;;;;;;;78.10;20.00;;;;;;;8.21;100.00;98926.50;5025267;28;20125;-58
2024/02/20 07:04:23;;;;;;;63.75;19.90;;;;;;;8.26;100.00;98928.31;5025835;28;20063;-58
2024/02/20 07:06:48;;;;;;;82.80;20.13;;;;;;;8.18;100.00;98920.38;5024034;28;20048;-59
2024/02/20 07:09:14;;;;;;;78.07;20.20;;;;;;;8.22;100.00;98927.38;5025344;28;20020;-59
2024/02/20 07:11:44;;;;;;;74.85;20.20;;;;;;;8.15;100.00;98930.66;5024273;28;20143;-59
2024/02/20 07:14:10;;;;;;;68.18;18.45;;;;;;;8.17;100.00;98934.19;5024819;28;20036;-58
2024/02/20 07:16:35;;;;;;;85.25;18.83;;;;;;;8.03;100.00;98949.44;5024269;28;20041;-59
2024/02/20 07:19:00;;;;;;;62.88;16.77;;;;;;;8.03;100.00;98952.91;5027521;28;20036;-58
2024/02/20 07:21:26;;;;;;;58.65;17.50;;;;;;;8.26;100.00;98955.13;5022840;28;20069;-57
2024/02/20 07:23:51;;;;;;;105.75;35.67;;;;;;;8.42;100.00;98958.00;5026671;28;20024;-58
2024/02/20 07:26:16;;;;;;;57.72;18.40;;;;;;;8.53;100.00;98960.88;5024826;28;20317;-58
2024/02/20 07:28:42;;;;;;;88.43;20.25;;;;;;;8.33;100.00;98958.72;5025992;28;20091;-59
2024/02/20 07:31:07;;;;;;;83.75;22.05;;;;;;;8.43;100.00;98962.38;5024906;28;20048;-58
2024/02/20 07:33:32;;;;;;;69.57;28.60;;;;;;;8.70;100.00;98966.41;5023542;28;20029;-59
2024/02/20 07:35:58;;;;;;;59.60;17.20;;;;;;;8.62;100.00;98965.38;5021456;28;20402;-57
2024/02/20 07:38:23;;;;;;;66.63;16.90;;;;;;;8.69;100.00;98973.31;5023706;28;20888;-58
2024/02/20 07:40:48;;;;;;;67.28;14.82;;;;;;;8.46;100.00;98976.28;5022452;28;20451;-59
2024/02/20 07:43:14;;;;;;;48.00;14.88;;;;;;;8.75;100.00;98982.06;5023010;28;20841;-58
2024/02/20 07:45:39;;;;;;;75.07;13.82;;;;;;;8.72;100.00;98973.38;5022852;28;20659;-59
2024/02/20 07:48:06;;;;;;;51.85;18.50;;;;;;;9.09;100.00;98973.19;5023952;28;20021;-59
2024/02/20 07:50:32;;;;;;;67.57;19.88;;;;;;;9.25;100.00;98976.94;5021312;28;20044;-59
2024/02/20 07:52:57;;;;;;;62.92;18.45;;;;;;;10.21;100.00;98986.25;5024227;28;20040;-59
2024/02/20 07:55:24;;;;;;;63.60;16.75;;;;;;;10.13;100.00;98988.72;5021630;28;20078;-60
2024/02/20 07:57:50;;;;;;;75.65;18.70;;;;;;;10.31;100.00;98990.72;5023012;28;20038;-59
2024/02/20 08:00:15;;;;;;;54.47;16.30;;;;;;;10.70;100.00;98992.97;5021954;28;20523;-58
2024/02/20 08:02:41;;;;;;;82.05;16.10;;;;;;;10.60;100.00;98995.47;5023163;28;20048;-58
2024/02/20 08:05:09;;;;;;;72.90;15.45;;;;;;;10.64;100.00;98996.38;5020468;28;20025;-59
2024/02/20 08:07:34;;;;;;;64.28;15.38;;;;;;;9.93;100.00;98997.13;5024819;28;20064;-58
2024/02/20 08:09:59;;;;;;;63.78;16.13;;;;;;;10.02;100.00;99002.44;5022111;28;20049;-60
2024/02/20 08:12:25;;;;;;;69.43;14.55;;;;;;;10.71;100.00;98995.63;5023300;28;20393;-61
2024/02/20 08:14:50;;;;;;;76.07;17.88;;;;;;;10.97;100.00;98999.38;5024134;28;20030;-60
2024/02/20 08:17:16;;;;;;;58.08;16.15;;;;;;;10.45;100.00;99001.34;5023438;28;20037;-59
2024/02/20 08:19:42;;;;;;;109.63;24.42;;;;;;;10.23;100.00;98998.41;5021526;28;20021;-61
2024/02/20 08:22:08;;;;;;;60.50;18.88;;;;;;;9.98;100.00;99000.66;5022822;28;20503;-59
2024/02/20 08:24:33;;;;;;;61.00;22.38;;;;;;;10.26;100.00;98998.47;5023387;28;20029;-60
2024/02/20 08:27:01;;;;;;;76.18;15.40;;;;;;;10.46;100.00;99005.69;5022712;28;20044;-60
2024/02/20 08:29:28;;;;;;;53.60;14.77;;;;;;;10.42;100.00;99006.47;5023221;28;20021;-57
2024/02/20 08:31:54;;;;;;;83.43;19.20;;;;;;;10.20;100.00;99006.16;5021768;28;20036;-58
2024/02/20 08:34:21;;;;;;;57.45;13.93;;;;;;;10.98;100.00;99001.13;5023012;28;20346;-59
2024/02/20 08:36:46;;;;;;;71.35;22.83;;;;;;;11.64;100.00;99005.22;5021261;28;20040;-57
2024/02/20 08:39:12;;;;;;;67.95;13.32;;;;;;;11.03;100.00;99004.66;5023484;28;20029;-59
2024/02/20 08:41:37;;;;;;;63.05;13.68;;;;;;;11.01;100.00;99007.25;5019780;28;20087;-57
2024/02/20 08:44:03;;;;;;;58.13;15.85;;;;;;;11.13;100.00;99005.63;5021861;28;20037;-58
2024/02/20 08:46:31;;;;;;;71.97;46.85;;;;;;;10.83;100.00;99012.25;5021539;28;20041;-59
2024/02/20 08:48:57;;;;;;;57.83;15.65;;;;;;;10.45;100.00;99019.56;5023866;28;20180;-57
2024/02/20 08:51:22;;;;;;;45.58;12.18;;;;;;;11.99;100.00;99022.88;5022676;28;20040;-57
2024/02/20 08:53:47;;;;;;;79.18;14.95;;;;;;;11.27;100.00;99035.28;5019673;28;20037;-57
2024/02/20 08:56:13;;;;;;;53.90;11.95;;;;;;;10.65;100.00;99018.97;5022918;28;20717;-59
2024/02/20 08:58:38;;;;;;;61.00;17.05;;;;;;;11.57;100.00;99014.72;5022950;28;20473;-58
2024/02/20 09:01:03;;;;;;;88.63;14.48;;;;;;;10.93;100.00;99021.91;5020516;28;20408;-59
2024/02/20 09:03:29;;;;;;;46.80;12.85;;;;;;;10.92;100.00;99013.19;5020097;28;20017;-60
2024/02/20 09:05:55;;;;;;;72.43;18.73;;;;;;;11.98;100.00;99023.75;5024688;28;20119;-58
2024/02/20 09:08:21;;;;;;;53.13;13.73;;;;;;;12.07;100.00;99018.63;5024438;28;20025;-57
2024/02/20 09:10:46;;;;;;;56.45;13.20;;;;;;;10.44;100.00;99022.09;5025953;28;20099;-57
2024/02/20 09:13:12;;;;;;;60.90;25.95;;;;;;;12.04;100.00;99018.59;5026437;28;20024;-57
2024/02/20 09:15:37;;;;;;;59.80;13.43;;;;;;;12.46;100.00;99036.28;5023168;28;20041;-57
2024/02/20 09:18:03;;;;;;;46.47;10.40;;;;;;;11.21;100.00;99027.41;5025746;28;20115;-57
2024/02/20 09:20:29;;;;;;;45.38;12.65;;;;;;;11.01;100.00;99032.38;5027739;28;20480;-59
2024/02/20 09:22:54;;;;;;;88.10;16.40;;;;;;;12.13;100.00;99032.59;5026429;28;20413;-59
2024/02/20 09:25:19;;;;;;;48.53;25.85;;;;;;;11.89;100.00;99037.59;5025889;28;20066;-58
2024/02/20 09:27:45;;;;;;;67.93;17.42;;;;;;;12.72;100.00;99038.16;5024130;28;20393;-58
2024/02/20 09:30:10;;;;;;;62.72;13.75;;;;;;;11.88;100.00;99050.63;5022654;28;20021;-60
2024/02/20 09:32:37;;;;;;;48.40;11.13;;;;;;;11.82;100.00;99060.16;5026401;28;20031;-58
2024/02/20 09:35:03;;;;;;;52.55;12.65;;;;;;;11.43;100.00;99057.16;5028853;28;20029;-59
2024/02/20 09:37:28;;;;;;;60.55;18.83;;;;;;;13.04;100.00;99063.53;5023074;28;20463;-58
2024/02/20 09:39:54;;;;;;;73.30;15.50;;;;;;;13.18;100.00;99057.50;5023857;28;20112;-60
2024/02/20 09:42:24;;;;;;;45.95;11.40;;;;;;;11.75;100.00;99062.66;5026187;28;20563;-59
2024/02/20 09:44:52;;;;;;;74.25;26.65;;;;;;;12.29;100.00;99060.50;5024235;28;20043;-59
2024/02/20 09:47:19;;;;;;;42.20;12.35;;;;;;;12.78;100.00;99066.91;5025771;28;20106;-58
2024/02/20 09:49:47;;;;;;;102.32;17.80;;;;;;;13.04;100.00;99060.03;5023057;28;20029;-58
2024/02/20 09:52:14;;;;;;;46.80;13.38;;;;;;;12.05;100.00;99054.28;5023860;28;20037;-58
2024/02/20 09:54:43;;;;;;;52.95;11.63;;;;;;;12.10;100.00;99054.31;5026735;28;20642;-57
2024/02/20 09:57:10;;;;;;;58.75;10.95;;;;;;;12.13;100.00;99053.47;5024470;28;20131;-59
2024/02/20 09:59:35;;;;;;;68.97;16.65;;;;;;;12.49;100.00;99067.63;5025042;28;20315;-59
2024/02/20 10:02:02;;;;;;;51.80;18.95;;;;;;;10.28;100.00;99071.28;5025678;28;20045;-57
2024/02/20 10:04:33;;;;;;;56.58;23.35;;;;;;;9.46;100.00;99069.06;5027258;28;20282;-59
2024/02/20 10:07:05;;;;;;;121.53;96.90;;;;;;;8.99;100.00;99062.97;5027563;28;20116;-58
2024/02/20 10:09:31;;;;;;;194.95;136.35;;;;;;;8.90;100.00;99067.97;5027887;28;20061;-59
2024/02/20 10:11:56;;;;;;;79.88;25.90;;;;;;;9.16;100.00;99070.22;5029784;28;20477;-57
2024/02/20 10:14:28;;;;;;;68.85;59.65;;;;;;;8.93;100.00;99072.34;5029414;28;20034;-56
2024/02/20 10:17:00;;;;;;;120.05;40.00;;;;;;;8.91;100.00;99079.25;5027951;28;20030;-56
2024/02/20 10:19:26;;;;;;;53.80;20.90;;;;;;;9.29;100.00;99081.75;5028341;28;20106;-57
2024/02/20 10:21:51;;;;;;;132.90;72.30;;;;;;;9.49;100.00;99079.53;5027449;28;20452;-58
2024/02/20 10:24:17;;;;;;;65.35;26.55;;;;;;;9.97;100.00;99086.38;5029330;28;20029;-60
2024/02/20 10:26:44;;;;;;;69.85;28.52;;;;;;;9.59;100.00;99087.47;5027615;28;20566;-58
2024/02/20 10:29:10;;;;;;;86.25;35.25;;;;;;;9.46;100.00;99079.47;5026691;28;20029;-57
2024/02/20 10:31:35;;;;;;;73.88;39.65;;;;;;;9.68;100.00;99074.66;5027031;28;20038;-57
2024/02/20 10:34:01;;;;;;;58.92;19.95;;;;;;;10.37;100.00;99076.66;5026953;28;20032;-59
2024/02/20 10:36:26;;;;;;;67.60;24.67;;;;;;;10.91;100.00;99071.31;5027862;28;20038;-60
2024/02/20 10:39:12;;;;;;;88.43;22.92;;;;;;;11.13;100.00;99068.97;5028663;28;20604;-60
2024/02/20 10:41:38;;;;;;;67.32;13.68;;;;;;;11.14;100.00;99065.50;5025936;28;20049;-57
2024/02/20 10:44:04;;;;;;;40.83;15.45;;;;;;;11.22;100.00;99056.94;5028578;28;20060;-57
2024/02/20 10:46:37;;;;;;;74.07;65.38;;;;;;;11.57;100.00;99049.50;5026517;28;20120;-59
2024/02/20 10:49:14;;;;;;;63.67;20.65;;;;;;;12.11;100.00;99045.63;5029008;28;20126;-59
2024/02/20 10:51:41;;;;;;;58.80;23.38;;;;;;;11.60;100.00;99040.81;5026152;28;20483;-58
2024/02/20 10:54:08;;;;;;;57.58;12.65;;;;;;;12.22;100.00;99037.88;5026924;28;20032;-59
2024/02/20 10:56:35;;;;;;;49.00;13.10;;;;;;;12.41;100.00;99032.78;5026702;28;20063;-57
2024/02/20 10:59:03;;;;;;;64.70;15.05;;;;;;;12.09;100.00;99029.97;5025434;28;20036;-60
2024/02/20 11:01:28;;;;;;;53.08;20.02;;;;;;;12.21;100.00;99020.50;5027044;28;20527;-59
2024/02/20 11:03:54;;;;;;;118.13;68.45;;;;;;;13.45;100.00;99030.56;5029288;28;20025;-59
2024/02/20 11:06:20;;;;;;;63.03;50.63;;;;;;;14.21;100.00;99021.03;5028803;28;20135;-58
2024/02/20 11:08:45;;;;;;;50.17;13.55;;;;;;;15.14;100.00;99012.00;5028397;28;20136;-59